sensor_id;sensor_type;location;lat;lon;timestamp;temperature;humidity
13482;DHT22;6813;60.352;15.746;2023-02-28T00:00:30;3.90;99.90
13482;DHT22;6813;60.352;15.746;2023-02-28T00:02:57;3.90;99.90
13482;DHT22;6813;60.352;15.746;2023-02-28T00:05:24;3.90;99.90
13482;DHT22;6813;60.352;15.746;2023-02-28T00:07:51;4.00;99.90
13482;DHT22;6813;60.352;15.746;2023-02-28T00:10:19;4.10;99.90
13482;DHT22;6813;60.352;15.746;2023-02-28T00:12:50;4.10;99.90
13482;DHT22;6813;60.352;15.746;2023-02-28T00:15:17;4.00;99.90
13482;DHT22;6813;60.352;15.746;2023-02-28T00:17:43;3.90;99.90
13482;DHT22;6813;60.352;15.746;2023-02-28T00:20:10;3.80;99.90
13482;DHT22;6813;60.352;15.746;2023-02-28T00:22:39;3.70;99.90
13482;DHT22;6813;60.352;15.746;2023-02-28T00:25:05;3.50;99.90
13482;DHT22;6813;60.352;15.746;2023-02-28T00:27:33;3.60;99.90
13482;DHT22;6813;60.352;15.746;2023-02-28T00:29:59;3.70;99.90
13482;DHT22;6813;60.352;15.746;2023-02-28T00:32:24;3.70;99.90
13482;DHT22;6813;60.352;15.746;2023-02-28T00:34:50;4.00;99.90
13482;DHT22;6813;60.352;15.746;2023-02-28T00:37:16;4.10;99.90
13482;DHT22;6813;60.352;15.746;2023-02-28T00:39:42;4.10;99.90
13482;DHT22;6813;60.352;15.746;2023-02-28T00:42:08;4.20;99.90
13482;DHT22;6813;60.352;15.746;2023-02-28T00:44:33;4.20;99.90
13482;DHT22;6813;60.352;15.746;2023-02-28T00:46:59;4.10;99.90
13482;DHT22;6813;60.352;15.746;2023-02-28T00:49:26;4.10;99.90
13482;DHT22;6813;60.352;15.746;2023-02-28T00:51:53;4.10;99.90
13482;DHT22;6813;60.352;15.746;2023-02-28T00:54:20;4.10;99.90
13482;DHT22;6813;60.352;15.746;2023-02-28T00:56:46;4.20;99.90
13482;DHT22;6813;60.352;15.746;2023-02-28T00:59:16;4.10;99.90
13482;DHT22;6813;60.352;15.746;2023-02-28T01:01:43;4.10;99.90
13482;DHT22;6813;60.352;15.746;2023-02-28T01:04:09;4.10;99.90
13482;DHT22;6813;60.352;15.746;2023-02-28T01:06:35;4.10;99.90
13482;DHT22;6813;60.352;15.746;2023-02-28T01:09:02;4.20;99.90
13482;DHT22;6813;60.352;15.746;2023-02-28T01:11:28;4.30;99.90
13482;DHT22;6813;60.352;15.746;2023-02-28T01:13:53;4.20;99.90
13482;DHT22;6813;60.352;15.746;2023-02-28T01:16:19;4.00;99.90
13482;DHT22;6813;60.352;15.746;2023-02-28T01:18:45;3.80;99.90
13482;DHT22;6813;60.352;15.746;2023-02-28T01:21:14;3.60;99.90
13482;DHT22;6813;60.352;15.746;2023-02-28T01:23:40;3.30;99.90
13482;DHT22;6813;60.352;15.746;2023-02-28T01:26:24;3.20;99.90
13482;DHT22;6813;60.352;15.746;2023-02-28T01:28:51;3.50;99.90
13482;DHT22;6813;60.352;15.746;2023-02-28T01:31:18;3.60;99.90
13482;DHT22;6813;60.352;15.746;2023-02-28T01:33:45;3.70;99.90
13482;DHT22;6813;60.352;15.746;2023-02-28T01:36:22;3.90;99.90
13482;DHT22;6813;60.352;15.746;2023-02-28T01:38:49;4.10;99.90
13482;DHT22;6813;60.352;15.746;2023-02-28T01:46:13;4.40;99.90
13482;DHT22;6813;60.352;15.746;2023-02-28T01:48:42;4.40;99.90
13482;DHT22;6813;60.352;15.746;2023-02-28T01:51:14;4.40;99.90
13482;DHT22;6813;60.352;15.746;2023-02-28T01:53:54;4.40;99.90
13482;DHT22;6813;60.352;15.746;2023-02-28T01:56:25;4.40;99.90
13482;DHT22;6813;60.352;15.746;2023-02-28T01:58:53;4.40;99.90
13482;DHT22;6813;60.352;15.746;2023-02-28T02:01:21;4.50;99.90
13482;DHT22;6813;60.352;15.746;2023-02-28T02:03:57;4.60;99.90
13482;DHT22;6813;60.352;15.746;2023-02-28T02:06:29;4.60;99.90
13482;DHT22;6813;60.352;15.746;2023-02-28T02:08:55;4.70;99.90
13482;DHT22;6813;60.352;15.746;2023-02-28T02:11:23;4.50;99.90
13482;DHT22;6813;60.352;15.746;2023-02-28T02:14:05;4.30;99.90
13482;DHT22;6813;60.352;15.746;2023-02-28T02:16:54;4.00;99.90
13482;DHT22;6813;60.352;15.746;2023-02-28T02:25:32;3.90;99.90
13482;DHT22;6813;60.352;15.746;2023-02-28T02:30:59;3.90;99.90
13482;DHT22;6813;60.352;15.746;2023-02-28T02:43:46;3.80;99.90
13482;DHT22;6813;60.352;15.746;2023-02-28T02:46:29;3.60;99.90
13482;DHT22;6813;60.352;15.746;2023-02-28T02:49:00;3.70;99.90
13482;DHT22;6813;60.352;15.746;2023-02-28T02:51:26;4.00;99.90
13482;DHT22;6813;60.352;15.746;2023-02-28T02:54:15;4.20;99.90
13482;DHT22;6813;60.352;15.746;2023-02-28T02:56:45;4.30;99.90
13482;DHT22;6813;60.352;15.746;2023-02-28T02:59:15;4.50;99.90
13482;DHT22;6813;60.352;15.746;2023-02-28T03:01:41;4.30;99.90
13482;DHT22;6813;60.352;15.746;2023-02-28T03:04:11;4.10;99.90
13482;DHT22;6813;60.352;15.746;2023-02-28T03:06:37;3.60;99.90
13482;DHT22;6813;60.352;15.746;2023-02-28T03:09:03;3.30;99.90
13482;DHT22;6813;60.352;15.746;2023-02-28T03:11:30;3.30;99.90
13482;DHT22;6813;60.352;15.746;2023-02-28T03:19:37;2.90;99.90
13482;DHT22;6813;60.352;15.746;2023-02-28T03:27:33;2.70;99.90
13482;DHT22;6813;60.352;15.746;2023-02-28T03:33:01;2.80;99.90
13482;DHT22;6813;60.352;15.746;2023-02-28T03:35:52;2.80;99.90
13482;DHT22;6813;60.352;15.746;2023-02-28T03:41:27;2.70;99.90
13482;DHT22;6813;60.352;15.746;2023-02-28T03:44:27;2.60;99.90
13482;DHT22;6813;60.352;15.746;2023-02-28T03:47:00;2.50;99.90
13482;DHT22;6813;60.352;15.746;2023-02-28T03:49:34;2.50;99.90
13482;DHT22;6813;60.352;15.746;2023-02-28T03:52:02;2.50;99.90
13482;DHT22;6813;60.352;15.746;2023-02-28T03:54:32;2.50;99.90
13482;DHT22;6813;60.352;15.746;2023-02-28T03:59:47;2.40;99.90
13482;DHT22;6813;60.352;15.746;2023-02-28T04:02:13;2.30;99.90
13482;DHT22;6813;60.352;15.746;2023-02-28T04:04:39;2.30;99.90
13482;DHT22;6813;60.352;15.746;2023-02-28T04:07:11;2.40;99.90
13482;DHT22;6813;60.352;15.746;2023-02-28T04:09:37;2.40;99.90
13482;DHT22;6813;60.352;15.746;2023-02-28T04:12:03;2.40;99.90
13482;DHT22;6813;60.352;15.746;2023-02-28T04:14:29;2.40;99.90
13482;DHT22;6813;60.352;15.746;2023-02-28T04:16:55;2.50;99.90
13482;DHT22;6813;60.352;15.746;2023-02-28T04:19:20;2.70;99.90
13482;DHT22;6813;60.352;15.746;2023-02-28T04:21:48;2.80;99.90
13482;DHT22;6813;60.352;15.746;2023-02-28T04:24:19;3.00;99.90
13482;DHT22;6813;60.352;15.746;2023-02-28T04:26:47;3.10;99.90
13482;DHT22;6813;60.352;15.746;2023-02-28T04:29:19;3.00;99.90
13482;DHT22;6813;60.352;15.746;2023-02-28T04:31:45;3.10;99.90
13482;DHT22;6813;60.352;15.746;2023-02-28T04:34:10;3.20;99.90
13482;DHT22;6813;60.352;15.746;2023-02-28T04:36:36;3.20;99.90
13482;DHT22;6813;60.352;15.746;2023-02-28T04:39:02;3.20;99.90
13482;DHT22;6813;60.352;15.746;2023-02-28T04:41:29;3.30;99.90
13482;DHT22;6813;60.352;15.746;2023-02-28T04:43:55;2.90;99.90
13482;DHT22;6813;60.352;15.746;2023-02-28T04:46:21;2.80;99.90
13482;DHT22;6813;60.352;15.746;2023-02-28T04:48:47;2.80;99.90
13482;DHT22;6813;60.352;15.746;2023-02-28T04:51:15;2.90;99.90
13482;DHT22;6813;60.352;15.746;2023-02-28T04:53:42;3.10;99.90
13482;DHT22;6813;60.352;15.746;2023-02-28T04:56:14;3.20;99.90
13482;DHT22;6813;60.352;15.746;2023-02-28T04:58:40;3.20;99.90
13482;DHT22;6813;60.352;15.746;2023-02-28T05:03:42;2.90;99.90
13482;DHT22;6813;60.352;15.746;2023-02-28T05:06:08;3.00;99.90
13482;DHT22;6813;60.352;15.746;2023-02-28T05:08:34;2.90;99.90
13482;DHT22;6813;60.352;15.746;2023-02-28T05:11:00;3.00;99.90
13482;DHT22;6813;60.352;15.746;2023-02-28T05:13:27;2.90;99.90
13482;DHT22;6813;60.352;15.746;2023-02-28T05:15:53;3.00;99.90
13482;DHT22;6813;60.352;15.746;2023-02-28T05:18:19;3.10;99.90
13482;DHT22;6813;60.352;15.746;2023-02-28T05:20:45;3.10;99.90
13482;DHT22;6813;60.352;15.746;2023-02-28T05:23:12;3.10;99.90
13482;DHT22;6813;60.352;15.746;2023-02-28T05:25:39;3.10;99.90
13482;DHT22;6813;60.352;15.746;2023-02-28T05:28:05;3.10;99.90
13482;DHT22;6813;60.352;15.746;2023-02-28T05:30:31;3.10;99.90
13482;DHT22;6813;60.352;15.746;2023-02-28T05:32:57;3.00;99.90
13482;DHT22;6813;60.352;15.746;2023-02-28T05:35:24;2.90;99.90
13482;DHT22;6813;60.352;15.746;2023-02-28T05:37:50;3.00;99.90
13482;DHT22;6813;60.352;15.746;2023-02-28T05:40:16;3.00;99.90
13482;DHT22;6813;60.352;15.746;2023-02-28T05:42:42;2.90;99.90
13482;DHT22;6813;60.352;15.746;2023-02-28T05:45:09;2.90;99.90
13482;DHT22;6813;60.352;15.746;2023-02-28T05:47:35;2.90;99.90
13482;DHT22;6813;60.352;15.746;2023-02-28T05:50:01;2.90;99.90
13482;DHT22;6813;60.352;15.746;2023-02-28T05:52:28;2.80;99.90
13482;DHT22;6813;60.352;15.746;2023-02-28T05:54:55;2.70;99.90
13482;DHT22;6813;60.352;15.746;2023-02-28T05:57:21;2.50;99.90
13482;DHT22;6813;60.352;15.746;2023-02-28T05:59:47;2.50;99.90
13482;DHT22;6813;60.352;15.746;2023-02-28T06:02:16;2.50;99.90
13482;DHT22;6813;60.352;15.746;2023-02-28T06:04:43;2.50;99.90
13482;DHT22;6813;60.352;15.746;2023-02-28T06:07:10;2.50;99.90
13482;DHT22;6813;60.352;15.746;2023-02-28T06:09:36;2.50;99.90
13482;DHT22;6813;60.352;15.746;2023-02-28T06:12:04;2.50;99.90
13482;DHT22;6813;60.352;15.746;2023-02-28T06:14:32;2.50;99.90
13482;DHT22;6813;60.352;15.746;2023-02-28T06:16:59;2.60;99.90
13482;DHT22;6813;60.352;15.746;2023-02-28T06:19:26;2.60;99.90
13482;DHT22;6813;60.352;15.746;2023-02-28T06:21:52;2.70;99.90
13482;DHT22;6813;60.352;15.746;2023-02-28T06:24:20;2.70;99.90
13482;DHT22;6813;60.352;15.746;2023-02-28T06:26:46;2.80;99.90
13482;DHT22;6813;60.352;15.746;2023-02-28T06:29:11;2.70;99.90
13482;DHT22;6813;60.352;15.746;2023-02-28T06:31:37;2.80;99.90
13482;DHT22;6813;60.352;15.746;2023-02-28T06:34:04;2.90;99.90
13482;DHT22;6813;60.352;15.746;2023-02-28T06:36:30;3.00;99.90
13482;DHT22;6813;60.352;15.746;2023-02-28T06:38:56;3.10;99.90
13482;DHT22;6813;60.352;15.746;2023-02-28T06:41:25;3.30;99.90
13482;DHT22;6813;60.352;15.746;2023-02-28T06:43:52;3.50;99.90
13482;DHT22;6813;60.352;15.746;2023-02-28T06:46:19;3.60;99.90
13482;DHT22;6813;60.352;15.746;2023-02-28T06:48:45;3.70;99.90
13482;DHT22;6813;60.352;15.746;2023-02-28T06:51:15;3.80;99.90
13482;DHT22;6813;60.352;15.746;2023-02-28T06:53:42;3.90;99.90
13482;DHT22;6813;60.352;15.746;2023-02-28T06:56:11;4.10;99.90
13482;DHT22;6813;60.352;15.746;2023-02-28T06:58:38;4.40;99.90
13482;DHT22;6813;60.352;15.746;2023-02-28T07:01:05;4.70;99.90
13482;DHT22;6813;60.352;15.746;2023-02-28T07:03:32;5.00;99.90
13482;DHT22;6813;60.352;15.746;2023-02-28T07:05:58;5.30;99.90
13482;DHT22;6813;60.352;15.746;2023-02-28T07:08:24;5.60;99.90
13482;DHT22;6813;60.352;15.746;2023-02-28T07:10:56;6.00;99.90
13482;DHT22;6813;60.352;15.746;2023-02-28T07:13:23;6.30;99.90
13482;DHT22;6813;60.352;15.746;2023-02-28T07:16:01;6.50;99.90
13482;DHT22;6813;60.352;15.746;2023-02-28T07:18:27;6.60;99.90
13482;DHT22;6813;60.352;15.746;2023-02-28T07:20:53;6.70;99.90
13482;DHT22;6813;60.352;15.746;2023-02-28T07:23:19;6.90;99.90
13482;DHT22;6813;60.352;15.746;2023-02-28T07:25:45;7.20;99.90
13482;DHT22;6813;60.352;15.746;2023-02-28T07:28:12;7.40;99.90
13482;DHT22;6813;60.352;15.746;2023-02-28T07:30:38;7.70;99.90
13482;DHT22;6813;60.352;15.746;2023-02-28T07:33:04;7.80;99.90
13482;DHT22;6813;60.352;15.746;2023-02-28T07:35:30;8.00;99.90
13482;DHT22;6813;60.352;15.746;2023-02-28T07:37:59;8.10;99.90
13482;DHT22;6813;60.352;15.746;2023-02-28T07:40:26;8.20;99.90
13482;DHT22;6813;60.352;15.746;2023-02-28T07:42:51;8.30;99.90
13482;DHT22;6813;60.352;15.746;2023-02-28T07:45:17;8.50;99.90
13482;DHT22;6813;60.352;15.746;2023-02-28T07:47:44;8.60;99.90
13482;DHT22;6813;60.352;15.746;2023-02-28T07:50:12;8.60;99.90
13482;DHT22;6813;60.352;15.746;2023-02-28T07:52:38;8.50;99.90
13482;DHT22;6813;60.352;15.746;2023-02-28T07:55:05;8.50;99.90
13482;DHT22;6813;60.352;15.746;2023-02-28T07:57:31;8.70;99.90
13482;DHT22;6813;60.352;15.746;2023-02-28T07:59:57;8.80;99.90
13482;DHT22;6813;60.352;15.746;2023-02-28T08:02:23;9.10;99.90
13482;DHT22;6813;60.352;15.746;2023-02-28T08:04:48;9.20;99.90
13482;DHT22;6813;60.352;15.746;2023-02-28T08:07:15;9.20;99.90
13482;DHT22;6813;60.352;15.746;2023-02-28T08:09:42;9.40;99.90
13482;DHT22;6813;60.352;15.746;2023-02-28T08:12:08;9.40;99.50
13482;DHT22;6813;60.352;15.746;2023-02-28T08:14:35;9.40;99.40
13482;DHT22;6813;60.352;15.746;2023-02-28T08:17:00;9.40;99.60
13482;DHT22;6813;60.352;15.746;2023-02-28T08:19:27;9.50;99.40
13482;DHT22;6813;60.352;15.746;2023-02-28T08:21:52;9.50;98.90
13482;DHT22;6813;60.352;15.746;2023-02-28T08:24:18;9.60;99.10
13482;DHT22;6813;60.352;15.746;2023-02-28T08:26:44;9.60;99.00
13482;DHT22;6813;60.352;15.746;2023-02-28T08:29:10;9.70;98.90
13482;DHT22;6813;60.352;15.746;2023-02-28T08:31:35;9.60;98.80
13482;DHT22;6813;60.352;15.746;2023-02-28T08:34:06;9.70;98.70
13482;DHT22;6813;60.352;15.746;2023-02-28T08:36:32;9.80;98.90
13482;DHT22;6813;60.352;15.746;2023-02-28T08:38:58;9.80;98.50
13482;DHT22;6813;60.352;15.746;2023-02-28T08:41:25;9.90;98.60
13482;DHT22;6813;60.352;15.746;2023-02-28T08:43:51;10.20;98.00
13482;DHT22;6813;60.352;15.746;2023-02-28T08:46:17;10.30;97.10
13482;DHT22;6813;60.352;15.746;2023-02-28T08:48:43;10.30;97.20
13482;DHT22;6813;60.352;15.746;2023-02-28T08:51:15;10.30;96.50
13482;DHT22;6813;60.352;15.746;2023-02-28T08:53:47;10.30;97.10
13482;DHT22;6813;60.352;15.746;2023-02-28T08:56:17;10.40;96.90
13482;DHT22;6813;60.352;15.746;2023-02-28T08:58:43;10.50;96.80
13482;DHT22;6813;60.352;15.746;2023-02-28T09:01:14;10.50;96.20
13482;DHT22;6813;60.352;15.746;2023-02-28T09:03:41;10.50;96.20
13482;DHT22;6813;60.352;15.746;2023-02-28T09:06:07;10.60;96.60
13482;DHT22;6813;60.352;15.746;2023-02-28T09:08:34;10.50;96.20
13482;DHT22;6813;60.352;15.746;2023-02-28T09:11:00;10.40;96.10
13482;DHT22;6813;60.352;15.746;2023-02-28T09:13:28;10.50;96.40
13482;DHT22;6813;60.352;15.746;2023-02-28T09:15:56;10.60;96.20
13482;DHT22;6813;60.352;15.746;2023-02-28T09:18:22;10.50;95.80
13482;DHT22;6813;60.352;15.746;2023-02-28T09:20:48;10.60;95.90
13482;DHT22;6813;60.352;15.746;2023-02-28T09:23:14;10.70;95.90
13482;DHT22;6813;60.352;15.746;2023-02-28T09:25:50;10.80;96.00
13482;DHT22;6813;60.352;15.746;2023-02-28T09:28:16;10.60;95.20
13482;DHT22;6813;60.352;15.746;2023-02-28T09:30:44;10.60;95.60
13482;DHT22;6813;60.352;15.746;2023-02-28T09:33:10;10.50;95.20
13482;DHT22;6813;60.352;15.746;2023-02-28T09:35:36;10.50;95.40
13482;DHT22;6813;60.352;15.746;2023-02-28T09:38:03;10.50;95.30
13482;DHT22;6813;60.352;15.746;2023-02-28T09:40:29;10.60;95.40
13482;DHT22;6813;60.352;15.746;2023-02-28T09:42:57;10.70;94.90
13482;DHT22;6813;60.352;15.746;2023-02-28T09:45:36;10.80;94.90
13482;DHT22;6813;60.352;15.746;2023-02-28T09:48:25;10.80;94.80
13482;DHT22;6813;60.352;15.746;2023-02-28T09:50:59;10.80;95.20
13482;DHT22;6813;60.352;15.746;2023-02-28T09:53:29;10.80;95.00
13482;DHT22;6813;60.352;15.746;2023-02-28T09:56:36;10.80;94.80
13482;DHT22;6813;60.352;15.746;2023-02-28T09:59:31;10.90;95.10
13482;DHT22;6813;60.352;15.746;2023-02-28T10:04:58;11.00;94.50
13482;DHT22;6813;60.352;15.746;2023-02-28T10:10:48;11.00;95.10
13482;DHT22;6813;60.352;15.746;2023-02-28T10:13:33;10.70;94.00
13482;DHT22;6813;60.352;15.746;2023-02-28T10:16:07;10.70;94.70
13482;DHT22;6813;60.352;15.746;2023-02-28T10:18:42;10.60;94.50
13482;DHT22;6813;60.352;15.746;2023-02-28T10:21:18;10.70;94.80
13482;DHT22;6813;60.352;15.746;2023-02-28T10:23:46;10.80;94.90
13482;DHT22;6813;60.352;15.746;2023-02-28T10:26:14;10.90;94.30
13482;DHT22;6813;60.352;15.746;2023-02-28T10:28:41;10.90;95.30
13482;DHT22;6813;60.352;15.746;2023-02-28T10:31:17;11.00;94.40
13482;DHT22;6813;60.352;15.746;2023-02-28T10:33:43;11.10;94.20
13482;DHT22;6813;60.352;15.746;2023-02-28T10:36:15;11.20;94.70
13482;DHT22;6813;60.352;15.746;2023-02-28T10:38:42;11.30;93.70
13482;DHT22;6813;60.352;15.746;2023-02-28T10:41:12;11.30;94.70
13482;DHT22;6813;60.352;15.746;2023-02-28T10:43:40;11.20;93.90
13482;DHT22;6813;60.352;15.746;2023-02-28T10:48:47;10.70;94.10
13482;DHT22;6813;60.352;15.746;2023-02-28T10:51:18;10.60;95.20
13482;DHT22;6813;60.352;15.746;2023-02-28T10:53:50;10.60;94.70
13482;DHT22;6813;60.352;15.746;2023-02-28T10:56:21;10.70;95.10
13482;DHT22;6813;60.352;15.746;2023-02-28T11:01:36;10.80;94.30
13482;DHT22;6813;60.352;15.746;2023-02-28T11:04:16;10.80;94.00
13482;DHT22;6813;60.352;15.746;2023-02-28T11:06:42;10.70;94.70
13482;DHT22;6813;60.352;15.746;2023-02-28T11:11:48;11.00;95.00
13482;DHT22;6813;60.352;15.746;2023-02-28T11:14:39;11.00;94.80
13482;DHT22;6813;60.352;15.746;2023-02-28T11:17:14;11.00;94.00
13482;DHT22;6813;60.352;15.746;2023-02-28T11:19:46;10.90;93.80
13482;DHT22;6813;60.352;15.746;2023-02-28T11:22:19;11.00;95.00
13482;DHT22;6813;60.352;15.746;2023-02-28T11:24:48;10.90;94.40
13482;DHT22;6813;60.352;15.746;2023-02-28T11:27:44;10.80;95.20
13482;DHT22;6813;60.352;15.746;2023-02-28T11:32:59;10.70;95.00
13482;DHT22;6813;60.352;15.746;2023-02-28T11:35:36;10.80;95.00
13482;DHT22;6813;60.352;15.746;2023-02-28T11:38:07;10.80;94.10
13482;DHT22;6813;60.352;15.746;2023-02-28T11:46:39;10.90;94.70
13482;DHT22;6813;60.352;15.746;2023-02-28T11:54:36;10.80;94.30
13482;DHT22;6813;60.352;15.746;2023-02-28T11:57:23;10.70;94.00
13482;DHT22;6813;60.352;15.746;2023-02-28T12:05:54;10.90;94.40
13482;DHT22;6813;60.352;15.746;2023-02-28T12:08:44;10.90;95.10
13482;DHT22;6813;60.352;15.746;2023-02-28T12:11:45;10.90;94.80
13482;DHT22;6813;60.352;15.746;2023-02-28T12:22:42;10.50;94.10
13482;DHT22;6813;60.352;15.746;2023-02-28T12:27:41;10.60;94.40
13482;DHT22;6813;60.352;15.746;2023-02-28T12:30:30;10.50;95.20
13482;DHT22;6813;60.352;15.746;2023-02-28T12:33:03;10.50;95.00
13482;DHT22;6813;60.352;15.746;2023-02-28T12:35:51;10.70;95.10
13482;DHT22;6813;60.352;15.746;2023-02-28T12:38:41;10.70;94.70
13482;DHT22;6813;60.352;15.746;2023-02-28T12:41:37;10.70;94.10
13482;DHT22;6813;60.352;15.746;2023-02-28T12:44:12;10.60;94.30
13482;DHT22;6813;60.352;15.746;2023-02-28T12:46:43;10.80;94.60
13482;DHT22;6813;60.352;15.746;2023-02-28T12:51:59;10.90;94.30
13482;DHT22;6813;60.352;15.746;2023-02-28T13:02:32;10.90;94.80
13482;DHT22;6813;60.352;15.746;2023-02-28T13:08:31;10.90;93.40
13482;DHT22;6813;60.352;15.746;2023-02-28T13:10:57;10.90;93.80
13482;DHT22;6813;60.352;15.746;2023-02-28T13:13:25;10.90;94.80
13482;DHT22;6813;60.352;15.746;2023-02-28T13:16:05;10.90;94.90
13482;DHT22;6813;60.352;15.746;2023-02-28T13:18:36;11.00;94.60
13482;DHT22;6813;60.352;15.746;2023-02-28T13:21:04;10.90;93.40
13482;DHT22;6813;60.352;15.746;2023-02-28T13:23:58;10.90;93.90
13482;DHT22;6813;60.352;15.746;2023-02-28T13:34:41;10.90;93.40
13482;DHT22;6813;60.352;15.746;2023-02-28T13:50:35;10.80;94.90
13482;DHT22;6813;60.352;15.746;2023-02-28T13:58:46;10.70;94.20
13482;DHT22;6813;60.352;15.746;2023-02-28T14:06:52;10.80;93.90
13482;DHT22;6813;60.352;15.746;2023-02-28T14:09:21;10.70;94.30
13482;DHT22;6813;60.352;15.746;2023-02-28T14:11:52;10.80;94.80
13482;DHT22;6813;60.352;15.746;2023-02-28T14:20:36;10.70;94.20
13482;DHT22;6813;60.352;15.746;2023-02-28T14:26:26;10.50;94.80
13482;DHT22;6813;60.352;15.746;2023-02-28T14:31:46;10.40;93.60
13482;DHT22;6813;60.352;15.746;2023-02-28T14:37:13;10.30;94.50
13482;DHT22;6813;60.352;15.746;2023-02-28T14:39:41;10.20;94.10
13482;DHT22;6813;60.352;15.746;2023-02-28T14:42:30;10.20;94.10
13482;DHT22;6813;60.352;15.746;2023-02-28T14:44:56;10.10;94.00
13482;DHT22;6813;60.352;15.746;2023-02-28T14:47:25;10.00;94.30
13482;DHT22;6813;60.352;15.746;2023-02-28T14:49:52;10.00;94.20
13482;DHT22;6813;60.352;15.746;2023-02-28T14:52:29;9.90;94.50
13482;DHT22;6813;60.352;15.746;2023-02-28T14:55:04;9.80;94.70
13482;DHT22;6813;60.352;15.746;2023-02-28T14:57:34;9.80;94.80
13482;DHT22;6813;60.352;15.746;2023-02-28T15:02:37;9.40;94.40
13482;DHT22;6813;60.352;15.746;2023-02-28T15:08:14;9.60;96.00
13482;DHT22;6813;60.352;15.746;2023-02-28T15:13:48;9.60;95.30
13482;DHT22;6813;60.352;15.746;2023-02-28T15:16:18;9.60;95.90
13482;DHT22;6813;60.352;15.746;2023-02-28T15:18:53;9.50;95.00
13482;DHT22;6813;60.352;15.746;2023-02-28T15:21:25;9.50;94.90
13482;DHT22;6813;60.352;15.746;2023-02-28T15:24:56;9.60;96.40
13482;DHT22;6813;60.352;15.746;2023-02-28T15:26:58;9.60;95.40
13482;DHT22;6813;60.352;15.746;2023-02-28T15:29:27;9.50;95.40
13482;DHT22;6813;60.352;15.746;2023-02-28T15:32:07;9.60;94.90
13482;DHT22;6813;60.352;15.746;2023-02-28T15:34:42;9.60;95.00
13482;DHT22;6813;60.352;15.746;2023-02-28T15:39:53;9.50;96.50
13482;DHT22;6813;60.352;15.746;2023-02-28T15:42:21;9.50;95.30
13482;DHT22;6813;60.352;15.746;2023-02-28T15:44:47;9.50;95.70
13482;DHT22;6813;60.352;15.746;2023-02-28T15:47:26;9.50;96.50
13482;DHT22;6813;60.352;15.746;2023-02-28T15:49:57;9.40;95.50
13482;DHT22;6813;60.352;15.746;2023-02-28T15:52:34;9.30;95.10
13482;DHT22;6813;60.352;15.746;2023-02-28T15:55:32;9.10;95.00
13482;DHT22;6813;60.352;15.746;2023-02-28T15:58:00;9.20;95.30
13482;DHT22;6813;60.352;15.746;2023-02-28T16:00:28;9.00;95.10
13482;DHT22;6813;60.352;15.746;2023-02-28T16:02:54;8.90;95.50
13482;DHT22;6813;60.352;15.746;2023-02-28T16:05:27;8.90;95.60
13482;DHT22;6813;60.352;15.746;2023-02-28T16:07:57;8.90;95.40
13482;DHT22;6813;60.352;15.746;2023-02-28T16:10:25;8.80;95.30
13482;DHT22;6813;60.352;15.746;2023-02-28T16:12:56;8.60;95.80
13482;DHT22;6813;60.352;15.746;2023-02-28T16:15:30;8.50;95.70
13482;DHT22;6813;60.352;15.746;2023-02-28T16:17:57;8.50;96.10
13482;DHT22;6813;60.352;15.746;2023-02-28T16:20:28;8.50;96.40
13482;DHT22;6813;60.352;15.746;2023-02-28T16:22:54;8.50;96.20
13482;DHT22;6813;60.352;15.746;2023-02-28T16:25:25;8.40;96.30
13482;DHT22;6813;60.352;15.746;2023-02-28T16:27:53;8.50;96.40
13482;DHT22;6813;60.352;15.746;2023-02-28T16:30:22;8.60;96.50
13482;DHT22;6813;60.352;15.746;2023-02-28T16:32:48;8.60;96.70
13482;DHT22;6813;60.352;15.746;2023-02-28T16:35:15;8.60;96.30
13482;DHT22;6813;60.352;15.746;2023-02-28T16:37:41;8.60;96.00
13482;DHT22;6813;60.352;15.746;2023-02-28T16:40:16;8.60;96.60
13482;DHT22;6813;60.352;15.746;2023-02-28T16:42:44;8.60;96.40
13482;DHT22;6813;60.352;15.746;2023-02-28T16:45:30;8.50;95.80
13482;DHT22;6813;60.352;15.746;2023-02-28T16:47:56;8.60;97.00
13482;DHT22;6813;60.352;15.746;2023-02-28T16:50:23;8.60;97.10
13482;DHT22;6813;60.352;15.746;2023-02-28T16:52:49;8.70;96.50
13482;DHT22;6813;60.352;15.746;2023-02-28T16:55:17;8.70;96.50
13482;DHT22;6813;60.352;15.746;2023-02-28T16:57:52;8.80;98.60
13482;DHT22;6813;60.352;15.746;2023-02-28T17:00:18;8.90;96.40
13482;DHT22;6813;60.352;15.746;2023-02-28T17:02:44;8.70;95.80
13482;DHT22;6813;60.352;15.746;2023-02-28T17:05:12;8.60;96.30
13482;DHT22;6813;60.352;15.746;2023-02-28T17:07:39;8.60;96.00
13482;DHT22;6813;60.352;15.746;2023-02-28T17:10:13;8.40;95.90
13482;DHT22;6813;60.352;15.746;2023-02-28T17:12:39;8.20;96.20
13482;DHT22;6813;60.352;15.746;2023-02-28T17:15:06;8.20;96.70
13482;DHT22;6813;60.352;15.746;2023-02-28T17:17:32;8.20;97.20
13482;DHT22;6813;60.352;15.746;2023-02-28T17:19:57;8.30;97.30
13482;DHT22;6813;60.352;15.746;2023-02-28T17:22:23;8.20;96.60
13482;DHT22;6813;60.352;15.746;2023-02-28T17:24:51;8.20;96.60
13482;DHT22;6813;60.352;15.746;2023-02-28T17:27:21;8.20;96.40
13482;DHT22;6813;60.352;15.746;2023-02-28T17:29:47;8.10;96.50
13482;DHT22;6813;60.352;15.746;2023-02-28T17:32:13;8.00;97.10
13482;DHT22;6813;60.352;15.746;2023-02-28T17:34:38;8.10;97.50
13482;DHT22;6813;60.352;15.746;2023-02-28T17:37:04;8.00;97.30
13482;DHT22;6813;60.352;15.746;2023-02-28T17:39:30;8.00;97.90
13482;DHT22;6813;60.352;15.746;2023-02-28T17:41:56;7.90;97.80
13482;DHT22;6813;60.352;15.746;2023-02-28T17:44:23;7.90;97.20
13482;DHT22;6813;60.352;15.746;2023-02-28T17:46:49;7.90;97.20
13482;DHT22;6813;60.352;15.746;2023-02-28T17:49:17;7.90;98.30
13482;DHT22;6813;60.352;15.746;2023-02-28T17:51:43;7.80;97.80
13482;DHT22;6813;60.352;15.746;2023-02-28T17:54:09;7.80;98.40
13482;DHT22;6813;60.352;15.746;2023-02-28T17:56:35;7.70;98.80
13482;DHT22;6813;60.352;15.746;2023-02-28T17:59:01;7.80;98.10
13482;DHT22;6813;60.352;15.746;2023-02-28T18:01:26;7.60;98.00
13482;DHT22;6813;60.352;15.746;2023-02-28T18:03:53;7.60;98.50
13482;DHT22;6813;60.352;15.746;2023-02-28T18:08:47;7.40;98.50
13482;DHT22;6813;60.352;15.746;2023-02-28T18:11:14;7.40;98.50
13482;DHT22;6813;60.352;15.746;2023-02-28T18:13:44;7.40;98.70
13482;DHT22;6813;60.352;15.746;2023-02-28T18:16:11;7.50;99.20
13482;DHT22;6813;60.352;15.746;2023-02-28T18:18:40;7.50;98.50
13482;DHT22;6813;60.352;15.746;2023-02-28T18:21:08;7.40;98.60
13482;DHT22;6813;60.352;15.746;2023-02-28T18:23:34;7.50;98.50
13482;DHT22;6813;60.352;15.746;2023-02-28T18:26:00;7.40;98.60
13482;DHT22;6813;60.352;15.746;2023-02-28T18:28:26;7.50;98.80
13482;DHT22;6813;60.352;15.746;2023-02-28T18:30:52;7.40;98.90
13482;DHT22;6813;60.352;15.746;2023-02-28T18:33:18;7.40;98.50
13482;DHT22;6813;60.352;15.746;2023-02-28T18:35:44;7.30;99.20
13482;DHT22;6813;60.352;15.746;2023-02-28T18:38:14;7.30;99.40
13482;DHT22;6813;60.352;15.746;2023-02-28T18:40:41;7.40;99.30
13482;DHT22;6813;60.352;15.746;2023-02-28T18:43:07;7.40;98.90
13482;DHT22;6813;60.352;15.746;2023-02-28T18:45:38;7.40;99.50